.
WxDataArchive / Data Records for 2008-10-14
2008-10-13 October 2008 2008-10-15

Data Records for Tuesday, 14 October 2008

Time	Temp	Chill	HIndex	Humid	Dewpt	 Wind 	HiWind	WindDir	Rain 	Barom 
-----	----	-----	------	-----	-----	------	------	-------	-----	----- 
00:00	68.9	68.9	68.9	70	58.7	0	2	248	0.00	30.153 
00:05	68.8	68.8	68.8	71	59.0	0	2	248	0.00	30.152 
00:10	68.6	68.6	68.6	71	58.8	0	2	248	0.00	30.151 
00:15	68.6	68.6	68.6	71	58.8	0	1	248	0.00	30.151 
00:20	68.4	68.4	68.4	72	59.0	0	2	248	0.00	30.153 
00:25	68.4	68.4	68.4	72	59.0	0	2	270	0.00	30.153 
00:30	68.3	68.3	68.3	72	58.9	0	3	270	0.00	30.153 
00:35	68.1	68.1	68.1	73	59.1	0	1	248	0.00	30.153 
00:40	67.9	67.9	67.9	73	58.9	0	2	248	0.00	30.153 
00:45	67.9	67.9	67.9	73	58.9	0	2	248	0.00	30.153 
00:50	67.8	67.8	67.8	73	58.8	0	1	248	0.00	30.153 
00:55	67.6	67.6	67.6	73	58.6	0	3	248	0.00	30.153 
01:00	67.6	67.6	67.6	74	59.0	0	2	248	0.00	30.154 
01:05	67.4	67.4	67.4	74	58.8	0	2	248	0.00	30.154 
01:10	67.4	67.4	67.4	75	59.2	0	2	248	0.00	30.154 
01:15	67.3	67.3	67.3	75	59.1	0	1	248	0.00	30.153 
01:20	67.1	67.1	67.1	75	58.9	1	3	248	0.00	30.154 
01:25	67.1	67.1	67.1	75	58.9	0	2	248	0.00	30.155 
01:30	66.9	66.9	66.9	76	59.1	0	2	248	0.00	30.155 
01:35	66.8	66.8	66.8	76	59.0	0	2	248	0.00	30.155 
01:40	66.8	66.8	66.8	77	59.3	0	2	248	0.00	30.154 
01:45	66.6	66.6	66.6	77	59.2	0	3	248	0.00	30.155 
01:50	66.6	66.6	66.6	77	59.2	0	1	248	0.00	30.155 
01:55	66.6	66.6	66.6	77	59.2	0	2	248	0.00	30.155 
02:00	66.6	66.6	66.6	77	59.2	0	1	248	0.00	30.154 
02:05	66.6	66.6	66.6	77	59.2	0	2	248	0.00	30.153 
02:10	66.6	66.6	66.6	77	59.2	0	3	248	0.00	30.153 
02:15	66.6	66.6	66.6	77	59.2	0	1	248	0.00	30.151 
02:20	66.4	66.4	66.4	78	59.3	0	3	248	0.00	30.152 
02:25	66.4	66.4	66.4	78	59.3	0	1	248	0.00	30.149 
02:30	66.3	66.3	66.3	78	59.2	0	1	248	0.00	30.147 
02:35	66.3	66.3	66.3	78	59.2	0	2	248	0.00	30.146 
02:40	66.3	66.3	66.3	78	59.2	0	2	248	0.00	30.145 
02:45	66.3	66.3	66.3	78	59.2	0	1	248	0.00	30.141 
02:50	66.3	66.3	66.3	78	59.2	0	1	248	0.00	30.140 
02:55	66.1	66.1	66.1	79	59.4	0	2	248	0.00	30.139 
03:00	66.1	66.1	66.1	79	59.4	0	1	248	0.00	30.138 
03:05	66.0	66.0	66.0	79	59.3	0	1	248	0.00	30.138 
03:10	66.0	66.0	66.0	79	59.3	0	2	248	0.00	30.138 
03:15	65.8	65.8	65.8	79	59.1	0	1	248	0.00	30.138 
03:20	65.8	65.8	65.8	80	59.5	0	3	248	0.00	30.136 
03:25	66.0	66.0	66.0	80	59.6	0	1	248	0.00	30.134 
03:30	66.0	66.0	66.0	80	59.6	0	1	248	0.00	30.136 
03:35	66.1	66.1	66.1	80	59.7	1	4	248	0.00	30.135 
03:40	66.1	66.1	66.1	80	59.7	0	1	248	0.00	30.133 
03:45	66.3	66.3	66.3	79	59.6	0	1	248	0.00	30.128 
03:50	66.3	66.3	66.3	79	59.6	0	1	248	0.00	30.126 
03:55	66.3	66.3	66.3	79	59.6	0	1	248	0.00	30.127 
04:00	66.3	66.3	66.3	79	59.6	0	2	248	0.00	30.123 
04:05	66.4	66.4	66.4	79	59.7	0	1	248	0.00	30.126 
04:10	66.4	66.4	66.4	79	59.7	0	2	248	0.00	30.126 
04:15	66.4	66.4	66.4	79	59.7	0	1	248	0.00	30.126 
04:20	66.4	66.4	66.4	79	59.7	0	3	248	0.00	30.127 
04:25	66.4	66.4	66.4	79	59.7	0	1	248	0.00	30.126 
04:30	66.6	66.6	66.6	79	59.9	0	2	248	0.00	30.126 
04:35	66.6	66.6	66.6	79	59.9	0	1	270	0.00	30.127 
04:40	66.8	66.8	66.8	79	60.1	0	1	270	0.00	30.128 
04:45	66.8	66.8	66.8	79	60.1	0	3	248	0.00	30.129 
04:50	66.9	66.9	66.9	79	60.2	0	2	248	0.00	30.128 
04:55	66.9	66.9	66.9	79	60.2	1	5	248	0.00	30.127 
05:00	66.9	66.9	66.9	79	60.2	0	2	248	0.00	30.128 
05:05	66.9	66.9	66.9	79	60.2	0	2	248	0.00	30.127 
05:10	67.1	67.1	67.1	79	60.4	0	2	248	0.00	30.126 
05:15	67.1	67.1	67.1	79	60.4	0	3	248	0.00	30.126 
05:20	66.9	66.9	66.9	79	60.2	0	2	248	0.00	30.127 
05:25	66.9	66.9	66.9	79	60.2	0	2	248	0.00	30.126 
05:30	66.9	66.9	66.9	80	60.5	0	2	248	0.00	30.127 
05:35	66.9	66.9	66.9	80	60.5	0	2	248	0.00	30.125 
05:40	66.9	66.9	66.9	80	60.5	0	2	248	0.00	30.123 
05:45	66.8	66.8	66.8	80	60.4	0	1	248	0.00	30.124 
05:50	66.8	66.8	66.8	81	60.8	0	2	248	0.00	30.124 
05:55	66.6	66.6	66.6	81	60.6	0	1	248	0.00	30.123 
06:00	66.6	66.6	66.6	81	60.6	0	1	248	0.00	30.125 
06:05	66.6	66.6	66.6	81	60.6	0	3	248	0.00	30.131 
06:10	66.6	66.6	66.6	81	60.6	0	2	248	0.00	30.130 
06:15	66.6	66.6	66.6	82	60.9	0	1	248	0.00	30.130 
06:20	66.6	66.6	66.6	81	60.6	0	1	248	0.00	30.133 
06:25	66.6	66.6	66.6	82	60.9	0	2	248	0.00	30.133 
06:30	66.6	66.6	66.6	82	60.9	0	2	248	0.00	30.136 
06:35	66.8	66.8	66.8	82	61.1	0	2	248	0.00	30.137 
06:40	66.8	66.8	66.8	82	61.1	0	2	248	0.00	30.135 
06:45	66.9	66.9	66.9	81	60.9	1	3	248	0.00	30.135 
06:50	66.9	66.9	66.9	81	60.9	0	2	248	0.00	30.135 
06:55	66.8	66.8	66.8	82	61.1	1	3	248	0.00	30.131 
07:00	66.9	66.9	66.9	82	61.2	1	3	248	0.00	30.136 
07:05	67.1	67.1	67.1	82	61.4	1	3	248	0.00	30.137 
07:10	67.1	67.1	67.1	82	61.4	1	2	248	0.00	30.139 
07:15	67.3	67.3	67.3	82	61.6	1	3	248	0.00	30.141 
07:20	67.3	67.3	67.3	82	61.6	1	3	248	0.00	30.142 
07:25	67.4	67.4	67.4	82	61.7	1	3	248	0.00	30.140 
07:30	67.4	67.4	67.4	81	61.4	1	3	248	0.00	30.141 
07:35	67.6	67.6	67.6	81	61.6	1	2	248	0.00	30.142 
07:40	67.8	67.8	67.8	81	61.7	1	3	270	0.00	30.145 
07:45	67.8	67.8	67.8	81	61.7	1	4	270	0.00	30.145 
07:50	67.9	67.9	67.9	81	61.8	1	3	292	0.00	30.146 
07:55	68.3	68.3	68.3	81	62.2	1	3	292	0.00	30.146 
08:00	68.6	68.6	68.6	80	62.2	1	4	292	0.00	30.148 
08:05	68.8	68.8	68.8	80	62.4	2	5	248	0.00	30.151 
08:10	68.6	68.6	68.6	80	62.2	1	3	315	0.00	30.156 
08:15	68.6	68.6	68.6	80	62.2	2	5	270	0.00	30.157 
08:20	68.4	68.4	68.4	81	62.3	2	5	270	0.00	30.159 
08:25	68.3	68.3	68.3	81	62.2	2	5	248	0.00	30.160 
08:30	68.4	68.4	68.4	81	62.3	1	4	270	0.00	30.162 
08:35	68.8	68.8	68.8	81	62.7	2	5	270	0.00	30.163 
08:40	68.6	68.6	68.6	81	62.5	2	5	270	0.00	30.163 
08:45	68.6	68.6	68.6	81	62.5	2	5	292	0.00	30.167 
08:50	68.4	68.4	68.4	81	62.3	1	3	270	0.00	30.170 
08:55	68.1	68.1	68.1	81	62.0	3	6	270	0.00	30.173 
09:00	65.8	65.8	65.8	77	58.4	3	10	315	0.00	30.191 
09:05	63.7	63.7	63.7	78	56.7	1	3	315	0.00	30.194 
09:10	62.1	62.1	62.1	77	54.8	2	6	315	0.00	30.197 
09:15	61.0	61.0	61.0	76	53.4	3	11	315	0.00	30.199 
09:20	60.5	60.5	60.5	76	52.9	2	6	338	0.00	30.201 
09:25	60.4	60.4	60.4	77	53.2	2	6	315	0.00	30.204 
09:30	60.1	60.1	60.1	77	52.9	1	3	315	0.00	30.208 
09:35	60.1	60.1	60.1	77	52.9	1	4	315	0.00	30.207 
09:40	60.2	60.2	60.2	76	52.6	1	3	292	0.00	30.207 
09:45	60.4	60.4	60.4	77	53.2	0	1	292	0.00	30.206 
09:50	60.4	60.4	60.4	72	51.3	1	4	292	0.00	30.203 
09:55	60.4	60.4	60.4	71	50.9	1	5	315	0.00	30.203 
10:00	60.5	60.5	60.5	71	51.0	1	3	315	0.00	30.199 
10:05	60.7	60.7	60.7	70	50.9	0	1	315	0.00	30.198 
10:10	61.0	61.0	61.0	69	50.8	0	2	315	0.00	30.198 
10:15	61.2	61.2	61.2	67	50.2	0	2	292	0.00	30.198 
10:20	61.5	61.5	61.5	67	50.4	0	1	292	0.00	30.198 
10:25	61.8	61.8	61.8	65	49.9	0	2	292	0.00	30.198 
10:30	62.0	62.0	62.0	65	50.1	1	3	315	0.00	30.198 
10:35	62.3	62.3	62.3	63	49.5	0	2	315	0.00	30.198 
10:40	62.6	62.6	62.6	62	49.4	1	3	315	0.00	30.196 
10:45	62.9	62.9	62.9	60	48.8	1	2	292	0.00	30.196 
10:50	63.2	63.2	63.2	60	49.1	0	2	292	0.00	30.195 
10:55	63.5	63.5	63.5	59	48.9	0	2	315	0.00	30.194 
11:00	64.0	64.0	64.0	59	49.4	0	1	315	0.00	30.193 
11:05	64.2	64.2	64.2	59	49.6	0	1	315	0.00	30.193 
11:10	64.3	64.3	64.3	58	49.2	0	2	315	0.00	30.192 
11:15	64.7	64.7	64.7	60	50.5	0	2	315	0.00	30.190 
11:20	64.7	64.7	64.7	57	49.1	1	3	315	0.00	30.188 
11:25	64.7	64.7	64.7	56	48.6	1	3	315	0.00	30.189 
11:30	64.5	64.5	64.5	58	49.4	1	4	315	0.00	30.187 
11:35	64.5	64.5	64.5	57	48.9	1	4	315	0.00	30.185 
11:40	64.5	64.5	64.5	58	49.4	0	3	338	0.00	30.187 
11:45	65.0	65.0	65.0	57	49.4	0	1	338	0.00	30.187 
11:50	65.2	65.2	65.2	58	50.0	0	2	338	0.00	30.184 
11:55	65.2	65.2	65.2	57	49.6	0	2	270	0.00	30.183 
12:00	65.2	65.2	65.2	57	49.6	1	2	270	0.00	30.182 
12:05	65.2	65.2	65.2	58	50.0	0	2	270	0.00	30.183 
12:10	65.2	65.2	65.2	58	50.0	0	1	270	0.00	30.182 
12:15	65.2	65.2	65.2	57	49.6	0	2	270	0.00	30.181 
12:20	65.0	65.0	65.0	57	49.4	0	2	270	0.00	30.180 
12:25	65.0	65.0	65.0	57	49.4	0	2	270	0.00	30.177 
12:30	65.2	65.2	65.2	57	49.6	0	2	270	0.00	30.176 
12:35	65.2	65.2	65.2	56	49.1	0	2	270	0.00	30.176 
12:40	65.3	65.3	65.3	54	48.2	1	2	270	0.00	30.172 
12:45	65.5	65.5	65.5	53	47.9	1	3	270	0.00	30.169 
12:50	65.3	65.3	65.3	55	48.7	1	2	270	0.00	30.170 
12:55	65.5	65.5	65.5	53	47.9	1	3	292	0.00	30.166 
13:00	65.5	65.5	65.5	54	48.4	1	3	292	0.00	30.166 
13:05	65.5	65.5	65.5	55	48.9	0	2	292	0.00	30.167 
13:10	65.8	65.8	65.8	54	48.7	1	2	292	0.00	30.167 
13:15	66.0	66.0	66.0	55	49.4	0	2	292	0.00	30.166 
13:20	66.1	66.1	66.1	54	49.0	1	2	292	0.00	30.166 
13:25	66.3	66.3	66.3	54	49.1	0	1	292	0.00	30.164 
13:30	66.4	66.4	66.4	54	49.2	0	2	292	0.00	30.165 
13:35	66.6	66.6	66.6	54	49.4	1	2	270	0.00	30.165 
13:40	66.6	66.6	66.6	54	49.4	1	2	270	0.00	30.164 
13:45	66.8	66.8	66.8	53	49.1	1	2	270	0.00	30.163 
13:50	66.6	66.6	66.6	53	48.9	0	1	270	0.00	30.163 
13:55	66.8	66.8	66.8	53	49.1	0	2	270	0.00	30.162 
14:00	66.8	66.8	66.8	53	49.1	0	2	270	0.00	30.162 
14:05	66.9	66.9	66.9	53	49.2	0	1	270	0.00	30.163 
14:10	66.8	66.8	66.8	50	47.6	1	2	292	0.00	30.161 
14:15	66.8	66.8	66.8	51	48.1	0	1	292	0.00	30.160 
14:20	67.1	67.1	67.1	50	47.8	1	4	292	0.00	30.161 
14:25	67.3	67.3	67.3	49	47.5	0	1	292	0.00	30.158 
14:30	67.4	67.4	67.4	50	48.1	0	2	292	0.00	30.154 
14:35	67.4	67.4	67.4	50	48.1	0	2	292	0.00	30.154 
14:40	67.4	67.4	67.4	51	48.6	0	2	315	0.00	30.154 
14:45	67.4	67.4	67.4	51	48.6	1	2	315	0.00	30.154 
14:50	67.6	67.6	67.6	52	49.3	0	2	315	0.00	30.152 
14:55	67.8	67.8	67.8	52	49.5	0	2	315	0.00	30.152 
15:00	67.8	67.8	67.8	51	49.0	0	3	270	0.00	30.151 
15:05	67.3	67.3	67.3	51	48.5	0	1	270	0.00	30.152 
15:10	67.3	67.3	67.3	51	48.5	1	2	270	0.00	30.151 
15:15	67.1	67.1	67.1	50	47.8	1	2	270	0.00	30.151 
15:20	67.1	67.1	67.1	50	47.8	0	1	270	0.00	30.150 
15:25	67.1	67.1	67.1	50	47.8	0	2	270	0.00	30.149 
15:30	66.9	66.9	66.9	50	47.6	0	1	292	0.00	30.148 
15:35	67.4	67.4	67.4	50	48.1	0	1	292	0.00	30.147 
15:40	67.8	67.8	67.8	50	48.5	0	2	292	0.00	30.146 
15:45	68.1	68.1	68.1	52	49.8	0	1	292	0.00	30.144 
15:50	68.1	68.1	68.1	48	47.7	0	3	270	0.00	30.144 
15:55	67.6	67.6	67.6	48	47.2	1	2	270	0.00	30.145 
16:00	67.4	67.4	67.4	49	47.6	0	2	292	0.00	30.144 
16:05	67.3	67.3	67.3	49	47.5	0	2	292	0.00	30.143 
16:10	66.9	66.9	66.9	48	46.6	0	1	292	0.00	30.143 
16:15	66.6	66.6	66.6	50	47.4	0	1	292	0.00	30.144 
16:20	66.4	66.4	66.4	50	47.2	0	1	292	0.00	30.147 
16:25	66.3	66.3	66.3	50	47.1	0	2	292	0.00	30.148 
16:30	66.4	66.4	66.4	49	46.7	0	2	315	0.00	30.145 
16:35	66.4	66.4	66.4	49	46.7	0	1	315	0.00	30.144 
16:40	66.4	66.4	66.4	49	46.7	0	1	315	0.00	30.145 
16:45	66.6	66.6	66.6	49	46.8	0	2	315	0.00	30.142 
16:50	66.6	66.6	66.6	49	46.8	0	1	315	0.00	30.140 
16:55	66.6	66.6	66.6	50	47.4	0	1	315	0.00	30.137 
17:00	66.4	66.4	66.4	48	46.1	0	0	---	0.00	30.138 
17:05	66.3	66.3	66.3	49	46.6	0	0	---	0.00	30.139 
17:10	66.3	66.3	66.3	49	46.6	0	0	---	0.00	30.138 
17:15	66.3	66.3	66.3	49	46.6	0	1	315	0.00	30.140 
17:20	66.1	66.1	66.1	50	46.9	0	0	---	0.00	30.139 
17:25	66.0	66.0	66.0	48	45.7	0	0	---	0.00	30.139 
17:30	65.8	65.8	65.8	49	46.1	0	0	---	0.00	30.137 
17:35	65.6	65.6	65.6	50	46.5	0	0	---	0.00	30.137 
17:40	65.5	65.5	65.5	50	46.4	0	0	---	0.00	30.136 
17:45	65.2	65.2	65.2	52	47.1	0	0	---	0.00	30.136 
17:50	64.8	64.8	64.8	53	47.3	0	0	---	0.00	30.136 
17:55	64.3	64.3	64.3	54	47.3	0	0	---	0.00	30.137 
18:00	63.9	63.9	63.9	55	47.4	0	0	---	0.00	30.138 
18:05	63.2	63.2	63.2	56	47.2	0	0	---	0.00	30.138 
18:10	62.9	62.9	62.9	56	47.0	0	0	---	0.00	30.139 
18:15	62.4	62.4	62.4	56	46.5	0	0	---	0.00	30.141 
18:20	62.0	62.0	62.0	58	47.0	0	0	---	0.00	30.141 
18:25	61.6	61.6	61.6	60	47.6	0	0	---	0.00	30.142 
18:30	61.5	61.5	61.5	61	47.9	0	0	---	0.00	30.141 
18:35	61.5	61.5	61.5	62	48.4	0	0	---	0.00	30.145 
18:40	61.5	61.5	61.5	61	47.9	0	0	---	0.00	30.145 
18:45	61.5	61.5	61.5	61	47.9	0	0	---	0.00	30.149 
18:50	61.5	61.5	61.5	62	48.4	0	0	---	0.00	30.149 
18:55	61.3	61.3	61.3	62	48.2	0	0	---	0.00	30.151 
19:00	61.2	61.2	61.2	61	47.6	0	0	---	0.00	30.149 
19:05	61.0	61.0	61.0	62	47.9	0	0	---	0.00	30.147 
19:10	60.9	60.9	60.9	63	48.2	0	0	---	0.00	30.145 
19:15	60.9	60.9	60.9	63	48.2	0	0	---	0.00	30.143 
19:20	60.9	60.9	60.9	63	48.2	0	0	---	0.00	30.145 
19:25	60.7	60.7	60.7	62	47.6	0	0	---	0.00	30.143 
19:30	60.7	60.7	60.7	62	47.6	0	0	---	0.00	30.141 
19:35	60.7	60.7	60.7	63	48.0	0	0	---	0.00	30.140 
19:40	60.7	60.7	60.7	64	48.4	0	0	---	0.00	30.140 
19:45	60.5	60.5	60.5	64	48.3	0	0	---	0.00	30.138 
19:50	60.5	60.5	60.5	65	48.7	0	0	---	0.00	30.139 
19:55	60.4	60.4	60.4	65	48.6	0	0	---	0.00	30.140 
20:00	60.2	60.2	60.2	65	48.4	0	0	---	0.00	30.140 
20:05	60.1	60.1	60.1	65	48.3	0	0	---	0.00	30.141 
20:10	59.9	59.9	59.9	66	48.5	0	0	---	0.00	30.142 
20:15	59.8	59.8	59.8	66	48.4	0	0	---	0.00	30.141 
20:20	59.6	59.6	59.6	68	49.0	0	0	---	0.00	30.141 
20:25	59.6	59.6	59.6	68	49.0	0	0	---	0.00	30.140 
20:30	59.5	59.5	59.5	68	48.9	0	0	---	0.00	30.141 
20:35	59.3	59.3	59.3	69	49.1	0	0	---	0.00	30.140 
20:40	59.3	59.3	59.3	68	48.7	0	0	---	0.00	30.142 
20:45	59.2	59.2	59.2	67	48.2	0	0	---	0.00	30.142 
20:50	59.2	59.2	59.2	67	48.2	0	0	---	0.00	30.139 
20:55	59.2	59.2	59.2	66	47.8	0	0	---	0.00	30.138 
21:00	59.2	59.2	59.2	65	47.4	0	0	---	0.00	30.138 
21:05	59.2	59.2	59.2	65	47.4	0	0	---	0.00	30.141 
21:10	59.2	59.2	59.2	66	47.8	0	0	---	0.00	30.142 
21:15	59.0	59.0	59.0	65	47.2	0	0	---	0.00	30.143 
21:20	59.0	59.0	59.0	65	47.2	0	0	---	0.00	30.144 
21:25	58.9	58.9	58.9	65	47.2	0	0	---	0.00	30.144 
21:30	58.9	58.9	58.9	66	47.6	0	0	---	0.00	30.145 
21:35	58.7	58.7	58.7	66	47.4	0	0	---	0.00	30.146 
21:40	58.7	58.7	58.7	67	47.8	0	0	---	0.00	30.145 
21:45	58.7	58.7	58.7	67	47.8	0	0	---	0.00	30.144 
21:50	58.6	58.6	58.6	67	47.7	0	0	---	0.00	30.143 
21:55	58.4	58.4	58.4	66	47.1	0	0	---	0.00	30.143 
22:00	58.3	58.3	58.3	66	47.0	0	0	---	0.00	30.142 
22:05	58.1	58.1	58.1	67	47.2	0	0	---	0.00	30.141 
22:10	57.8	57.8	57.8	67	46.9	0	0	---	0.00	30.140 
22:15	57.6	57.6	57.6	68	47.1	0	0	---	0.00	30.138 
22:20	57.5	57.5	57.5	69	47.4	0	0	---	0.00	30.140 
22:25	57.3	57.3	57.3	69	47.2	0	0	---	0.00	30.143 
22:30	57.0	57.0	57.0	70	47.3	0	0	---	0.00	30.143 
22:35	56.9	56.9	56.9	71	47.6	0	0	---	0.00	30.143 
22:40	56.6	56.6	56.6	71	47.3	0	0	---	0.00	30.140 
22:45	56.5	56.5	56.5	72	47.6	0	0	---	0.00	30.141 
22:50	56.3	56.3	56.3	73	47.8	0	0	---	0.00	30.140 
22:55	56.3	56.3	56.3	73	47.8	0	0	---	0.00	30.139 
23:00	56.3	56.3	56.3	74	48.1	0	0	---	0.00	30.136 
23:05	56.3	56.3	56.3	75	48.5	0	0	---	0.00	30.134 
23:10	56.5	56.5	56.5	75	48.7	0	0	---	0.00	30.131 
23:15	56.5	56.5	56.5	75	48.7	0	0	---	0.00	30.129 
23:20	56.6	56.6	56.6	75	48.8	0	0	---	0.00	30.128 
23:25	56.7	56.7	56.7	74	48.5	0	0	---	0.00	30.127 
23:30	56.7	56.7	56.7	74	48.5	0	0	---	0.00	30.126 
23:35	56.9	56.9	56.9	73	48.3	0	0	---	0.00	30.126 
23:40	57.0	57.0	57.0	73	48.4	0	0	---	0.00	30.125 
23:45	57.0	57.0	57.0	72	48.1	0	0	---	0.00	30.125 
23:50	57.2	57.2	57.2	71	47.9	0	0	---	0.00	30.120 
23:55	57.3	57.3	57.3	69	47.2	0	0	---	0.00	30.118 

CoCoRaHS
IN-AL-39
A2 Web Hosting
Creative Commons License
GoDaddy
Look for:

loaded 2017-10-17 00:15:13 • last modified 2010-11-18 10:43:29
Privacy PolicyDisclaimer
• wx.awcolley.com is powered by PmWiki v.2002016 •
• all content (unless otherwise noted) © 2017 A W Colley